Time;durP1;ratioP1;P1;durP2;ratioP2;P2;SDS_P1;SDS_P2;PMS_P1;PMS_P2;Temp;Humidity;BMP_temperature;BMP_pressure;BME280_temperature;BME280_humidity;BME280_pressure;Samples;Min_cycle;Max_cycle;Signal;HPM_P1;HPM_P2
2023/03/14 00:01:14;;;;;;;10.10;9.60;;;21.10;52.80;;;;;;5031938;28;20477;-48
2023/03/14 00:03:41;;;;;;;10.63;10.10;;;21.10;52.90;;;;;;5031875;28;20511;-49
2023/03/14 00:06:08;;;;;;;12.00;11.00;;;21.00;53.00;;;;;;5031769;28;20507;-49
2023/03/14 00:08:36;;;;;;;11.10;9.90;;;21.00;53.10;;;;;;5031445;28;20503;-49
2023/03/14 00:11:06;;;;;;;10.10;9.43;;;20.90;53.10;;;;;;5031665;28;20568;-51
2023/03/14 00:13:33;;;;;;;11.23;10.43;;;20.90;53.30;;;;;;5031544;28;21042;-50
2023/03/14 00:16:03;;;;;;;10.00;9.60;;;20.80;53.30;;;;;;5031790;28;20499;-48
2023/03/14 00:18:32;;;;;;;10.93;10.33;;;20.80;53.40;;;;;;5031543;28;20504;-49
2023/03/14 00:21:00;;;;;;;12.63;11.73;;;20.80;53.50;;;;;;5031647;28;20500;-48
2023/03/14 00:23:28;;;;;;;9.77;9.27;;;20.70;53.60;;;;;;5031498;28;20445;-48
2023/03/14 00:25:59;;;;;;;10.67;10.17;;;20.70;53.70;;;;;;5031855;28;20445;-49
2023/03/14 00:28:25;;;;;;;10.00;9.60;;;20.70;53.70;;;;;;5031394;28;20508;-48
2023/03/14 00:30:52;;;;;;;12.00;11.50;;;20.70;53.80;;;;;;5033704;28;20572;-48
2023/03/14 00:33:19;;;;;;;9.70;9.30;;;20.60;53.80;;;;;;5037835;28;20949;-49
2023/03/14 00:35:55;;;;;;;9.83;9.43;;;20.60;53.80;;;;;;5038133;28;20889;-48
2023/03/14 00:38:22;;;;;;;10.30;9.60;;;20.60;53.90;;;;;;5037656;28;20999;-48
2023/03/14 00:40:49;;;;;;;10.30;9.80;;;20.60;54.10;;;;;;5038242;28;20469;-49
2023/03/14 00:43:16;;;;;;;10.47;9.90;;;20.60;54.10;;;;;;5037801;28;20480;-49
2023/03/14 00:45:42;;;;;;;10.23;9.73;;;20.60;54.20;;;;;;5038048;28;20487;-48
2023/03/14 00:48:09;;;;;;;10.03;9.40;;;20.60;54.30;;;;;;5037615;28;20501;-49
2023/03/14 00:50:36;;;;;;;10.10;9.70;;;20.50;54.20;;;;;;5037840;28;20567;-48
2023/03/14 00:53:04;;;;;;;9.40;9.00;;;20.50;54.20;;;;;;5037638;28;20531;-50
2023/03/14 00:55:31;;;;;;;9.80;9.30;;;20.50;54.30;;;;;;5037692;28;20922;-48
2023/03/14 00:57:58;;;;;;;10.27;9.73;;;20.50;54.30;;;;;;5037952;28;20501;-52
2023/03/14 01:00:25;;;;;;;9.93;9.43;;;20.50;54.30;;;;;;5038197;28;20480;-49
2023/03/14 01:02:52;;;;;;;10.13;9.63;;;20.50;54.40;;;;;;5037834;28;20528;-48
2023/03/14 01:05:19;;;;;;;10.43;9.70;;;20.40;54.40;;;;;;5037570;28;20483;-49
2023/03/14 01:07:46;;;;;;;10.00;9.50;;;20.40;54.40;;;;;;5037671;28;20497;-48
2023/03/14 01:10:14;;;;;;;9.53;9.03;;;20.50;54.40;;;;;;5037763;28;20904;-49
2023/03/14 01:12:41;;;;;;;9.90;9.30;;;20.40;54.50;;;;;;5037550;28;20479;-49
2023/03/14 01:15:08;;;;;;;9.43;8.87;;;20.40;54.50;;;;;;5037692;28;21184;-48
2023/03/14 01:17:37;;;;;;;9.73;9.33;;;20.40;54.60;;;;;;5037357;28;20504;-48
2023/03/14 01:20:08;;;;;;;11.30;10.43;;;20.40;54.60;;;;;;5037702;28;20825;-51
2023/03/14 01:22:35;;;;;;;9.80;9.03;;;20.40;54.60;;;;;;5037393;28;20447;-48
2023/03/14 01:25:02;;;;;;;9.87;9.23;;;20.40;54.60;;;;;;5037671;28;20877;-48
2023/03/14 01:27:31;;;;;;;9.47;8.87;;;20.40;54.70;;;;;;5037195;28;20500;-48
2023/03/14 01:29:58;;;;;;;10.10;9.60;;;20.30;54.60;;;;;;5037381;28;20523;-48
2023/03/14 01:32:25;;;;;;;10.33;9.80;;;20.30;54.60;;;;;;5037323;28;20448;-48
2023/03/14 01:34:52;;;;;;;9.93;9.47;;;20.30;54.60;;;;;;5037862;28;20979;-48
2023/03/14 01:37:19;;;;;;;10.00;9.50;;;20.30;54.70;;;;;;5037068;28;20550;-49
2023/03/14 01:39:48;;;;;;;10.17;9.33;;;20.30;54.70;;;;;;5037531;28;20472;-48
2023/03/14 01:42:15;;;;;;;10.00;9.47;;;20.30;54.70;;;;;;5035498;28;20481;-49
2023/03/14 01:44:51;;;;;;;10.10;9.53;;;20.30;54.80;;;;;;5034149;28;20532;-48
2023/03/14 01:47:18;;;;;;;9.70;9.10;;;20.30;54.80;;;;;;5034378;28;20563;-48
2023/03/14 01:49:47;;;;;;;9.63;9.13;;;20.30;54.90;;;;;;5034206;28;20521;-49
2023/03/14 01:52:17;;;;;;;10.00;9.50;;;20.30;54.90;;;;;;5034226;28;20884;-48
2023/03/14 01:54:48;;;;;;;9.60;9.20;;;20.30;54.90;;;;;;5033815;28;20953;-48
2023/03/14 01:57:20;;;;;;;10.50;9.80;;;20.30;54.90;;;;;;5033771;28;21019;-50
2023/03/14 01:59:53;;;;;;;9.37;8.80;;;20.30;55.00;;;;;;5034176;28;20449;-48
2023/03/14 02:02:21;;;;;;;11.93;11.20;;;20.30;55.00;;;;;;5034042;28;20540;-48
2023/03/14 02:04:48;;;;;;;9.37;8.97;;;20.30;55.00;;;;;;5033822;28;20480;-49
2023/03/14 02:07:19;;;;;;;9.37;8.87;;;20.30;55.10;;;;;;5033773;28;20512;-48
2023/03/14 02:09:49;;;;;;;10.10;9.60;;;20.30;55.10;;;;;;5033939;28;20575;-49
2023/03/14 02:12:18;;;;;;;9.40;9.00;;;20.30;55.10;;;;;;5033667;28;20484;-48
2023/03/14 02:14:47;;;;;;;9.87;9.30;;;20.30;55.10;;;;;;5033485;28;20482;-48
2023/03/14 02:17:18;;;;;;;9.53;9.23;;;20.30;55.10;;;;;;5033856;28;20473;-48
2023/03/14 02:19:58;;;;;;;10.03;9.63;;;20.20;55.00;;;;;;5033999;28;20529;-48
2023/03/14 02:22:25;;;;;;;8.90;8.57;;;20.20;55.00;;;;;;5033731;28;20473;-48
2023/03/14 02:25:00;;;;;;;8.93;8.53;;;20.20;55.00;;;;;;5033725;28;20883;-49
2023/03/14 02:27:28;;;;;;;9.80;9.30;;;20.20;55.10;;;;;;5033805;28;20499;-49
2023/03/14 02:29:59;;;;;;;10.10;9.60;;;20.30;55.20;;;;;;5033893;28;20923;-53
2023/03/14 02:32:28;;;;;;;9.17;8.77;;;20.20;55.10;;;;;;5033588;28;21000;-54
2023/03/14 02:34:58;;;;;;;9.80;9.30;;;20.20;55.10;;;;;;5033597;28;20528;-49
2023/03/14 02:37:29;;;;;;;9.50;9.10;;;20.20;55.10;;;;;;5033593;28;20544;-48
2023/03/14 02:39:57;;;;;;;9.70;9.30;;;20.20;55.20;;;;;;5033565;28;20484;-50
2023/03/14 02:42:23;;;;;;;9.27;8.87;;;20.20;55.20;;;;;;5033088;28;20481;-50
2023/03/14 02:45:01;;;;;;;9.47;9.07;;;20.20;55.20;;;;;;5033109;28;20886;-48
2023/03/14 02:47:30;;;;;;;9.60;9.10;;;20.20;55.30;;;;;;5033680;28;20481;-48
2023/03/14 02:50:02;;;;;;;10.37;9.60;;;20.20;55.30;;;;;;5034594;28;21015;-50
2023/03/14 02:52:29;;;;;;;9.40;9.00;;;20.20;55.30;;;;;;5033323;28;20867;-50
2023/03/14 02:54:56;;;;;;;9.77;9.37;;;20.20;55.30;;;;;;5033623;28;20445;-53
2023/03/14 02:57:23;;;;;;;9.53;9.13;;;20.20;55.40;;;;;;5032827;28;20512;-53
2023/03/14 02:59:50;;;;;;;10.20;9.80;;;20.20;55.40;;;;;;5032925;28;20503;-53
2023/03/14 03:02:18;;;;;;;9.53;8.73;;;20.20;55.40;;;;;;5032749;28;21002;-53
2023/03/14 03:04:45;;;;;;;9.90;9.30;;;20.20;55.40;;;;;;5032499;28;20481;-54
2023/03/14 03:07:12;;;;;;;9.60;9.20;;;20.20;55.40;;;;;;5032730;28;20481;-52
2023/03/14 03:09:39;;;;;;;10.20;9.70;;;20.20;55.40;;;;;;5033485;28;20514;-48
2023/03/14 03:12:06;;;;;;;9.73;9.33;;;20.20;55.40;;;;;;5032469;28;20572;-49
2023/03/14 03:14:33;;;;;;;10.50;10.07;;;20.20;55.50;;;;;;5032753;28;20481;-48
2023/03/14 03:17:00;;;;;;;9.23;8.93;;;20.20;55.40;;;;;;5032681;28;20507;-49
2023/03/14 03:19:28;;;;;;;9.70;9.20;;;20.20;55.50;;;;;;5032790;28;20891;-48
2023/03/14 03:21:55;;;;;;;10.27;9.60;;;20.20;55.50;;;;;;5032041;28;20480;-49
2023/03/14 03:24:22;;;;;;;10.13;9.53;;;20.20;55.50;;;;;;5032512;28;20485;-49
2023/03/14 03:26:49;;;;;;;10.00;9.40;;;20.20;55.50;;;;;;5032517;28;20527;-48
2023/03/14 03:29:16;;;;;;;10.10;9.27;;;20.20;55.60;;;;;;5032577;28;20477;-48
2023/03/14 03:31:45;;;;;;;9.93;9.53;;;20.20;55.60;;;;;;5032035;28;20516;-50
2023/03/14 03:34:12;;;;;;;9.07;8.63;;;20.20;55.60;;;;;;5032482;28;20449;-47
2023/03/14 03:36:40;;;;;;;9.60;9.00;;;20.10;55.60;;;;;;5032414;28;20485;-49
2023/03/14 03:39:08;;;;;;;9.70;9.20;;;20.10;55.60;;;;;;5032421;28;20477;-49
2023/03/14 03:41:35;;;;;;;8.50;8.20;;;20.10;55.60;;;;;;5031842;28;20465;-49
2023/03/14 03:44:02;;;;;;;10.30;9.50;;;20.10;55.70;;;;;;5032072;28;20481;-47
2023/03/14 03:46:29;;;;;;;9.63;9.07;;;20.20;55.80;;;;;;5032023;28;20492;-49
2023/03/14 03:48:56;;;;;;;8.70;8.30;;;20.10;55.80;;;;;;5031969;28;20504;-49
2023/03/14 03:51:23;;;;;;;9.00;8.50;;;20.10;55.80;;;;;;5031585;28;20572;-48
2023/03/14 03:53:51;;;;;;;9.70;9.07;;;20.20;55.80;;;;;;5032050;28;20492;-48
2023/03/14 03:56:18;;;;;;;7.80;7.60;;;20.10;55.70;;;;;;5033875;28;20878;-51
2023/03/14 03:58:45;;;;;;;9.33;8.93;;;20.20;55.80;;;;;;5035421;28;20496;-50
2023/03/14 04:01:12;;;;;;;9.87;9.27;;;20.20;55.70;;;;;;5031712;28;20473;-48
2023/03/14 04:03:39;;;;;;;8.80;8.40;;;20.20;55.80;;;;;;5031755;28;20492;-49
2023/03/14 04:06:08;;;;;;;9.30;8.90;;;20.20;55.80;;;;;;5031412;28;20449;-49
2023/03/14 04:08:35;;;;;;;9.57;9.17;;;20.20;55.80;;;;;;5031777;28;20500;-49
2023/03/14 04:11:04;;;;;;;9.13;8.50;;;20.20;55.90;;;;;;5031222;28;20572;-48
2023/03/14 04:13:31;;;;;;;7.93;7.67;;;20.10;55.80;;;;;;5031667;28;20996;-48
2023/03/14 04:15:58;;;;;;;9.47;8.77;;;20.10;55.90;;;;;;5031813;28;20488;-49
2023/03/14 04:18:25;;;;;;;9.23;8.70;;;20.20;56.00;;;;;;5031803;28;20508;-48
2023/03/14 04:20:53;;;;;;;8.43;8.13;;;20.10;56.00;;;;;;5031480;28;20455;-49
2023/03/14 04:23:21;;;;;;;9.10;8.80;;;20.10;56.00;;;;;;5031364;28;20964;-50
2023/03/14 04:25:48;;;;;;;9.47;9.17;;;20.10;56.00;;;;;;5031758;28;20449;-49
2023/03/14 04:28:16;;;;;;;8.60;8.30;;;20.10;56.10;;;;;;5031721;28;20523;-49
2023/03/14 04:30:43;;;;;;;9.00;8.60;;;20.10;56.20;;;;;;5032740;28;20515;-50
2023/03/14 04:33:12;;;;;;;9.87;9.37;;;20.20;56.20;;;;;;5032405;28;20480;-49
2023/03/14 04:35:39;;;;;;;8.60;8.30;;;20.10;56.30;;;;;;5032126;28;20449;-49
2023/03/14 04:38:06;;;;;;;8.90;8.60;;;20.10;56.50;;;;;;5032380;28;20503;-50
2023/03/14 04:40:33;;;;;;;9.57;9.17;;;20.10;56.60;;;;;;5032094;28;20473;-48
2023/03/14 04:42:59;;;;;;;9.60;9.30;;;20.20;56.80;;;;;;5032076;28;20480;-49
2023/03/14 04:45:28;;;;;;;9.93;9.33;;;20.10;56.90;;;;;;5032216;28;20473;-51
2023/03/14 04:47:54;;;;;;;9.80;9.30;;;20.20;57.00;;;;;;5031997;28;20509;-49
2023/03/14 04:50:21;;;;;;;9.77;9.47;;;20.20;57.10;;;;;;5032644;28;21003;-49
2023/03/14 04:52:49;;;;;;;9.03;8.73;;;20.20;57.10;;;;;;5032747;28;20456;-50
2023/03/14 04:55:16;;;;;;;8.30;8.10;;;20.20;57.10;;;;;;5033160;28;20476;-48
2023/03/14 04:57:43;;;;;;;11.33;10.83;;;20.20;57.30;;;;;;5031919;28;20972;-50
2023/03/14 05:00:11;;;;;;;9.00;8.70;;;20.20;57.40;;;;;;5031761;28;20481;-48
2023/03/14 05:02:39;;;;;;;8.73;8.23;;;20.20;57.60;;;;;;5031432;28;20868;-51
2023/03/14 05:05:07;;;;;;;9.00;8.70;;;20.20;57.60;;;;;;5031831;28;20480;-49
2023/03/14 05:07:34;;;;;;;9.83;9.33;;;20.20;57.60;;;;;;5032337;28;20519;-47
2023/03/14 05:10:00;;;;;;;9.50;9.10;;;20.20;57.70;;;;;;5031535;28;20484;-49
2023/03/14 05:12:27;;;;;;;9.40;9.10;;;20.20;57.70;;;;;;5031536;28;20573;-48
2023/03/14 05:14:54;;;;;;;9.40;8.90;;;20.20;57.70;;;;;;5031758;28;20455;-50
2023/03/14 05:17:21;;;;;;;9.87;9.37;;;20.20;57.60;;;;;;5031371;28;20496;-49
2023/03/14 05:19:49;;;;;;;9.60;9.20;;;20.20;57.60;;;;;;5035033;28;20449;-49
2023/03/14 05:22:16;;;;;;;10.63;10.23;;;20.20;57.60;;;;;;5035622;28;20484;-50
2023/03/14 05:24:43;;;;;;;9.57;9.17;;;20.30;57.60;;;;;;5035429;28;20487;-52
2023/03/14 05:27:10;;;;;;;9.80;9.40;;;20.20;57.60;;;;;;5041568;28;20918;-50
2023/03/14 05:29:37;;;;;;;10.73;10.23;;;20.20;57.50;;;;;;5016760;28;20512;-52
2023/03/14 05:32:04;;;;;;;9.57;9.17;;;20.20;57.60;;;;;;5027372;28;20572;-50
2023/03/14 05:34:31;;;;;;;9.37;8.97;;;20.30;57.60;;;;;;5034547;28;20488;-50
2023/03/14 05:36:59;;;;;;;10.50;10.07;;;20.30;57.60;;;;;;5034562;28;20504;-48
2023/03/14 05:39:26;;;;;;;9.90;9.60;;;20.20;57.50;;;;;;5034745;28;20488;-50
2023/03/14 05:41:55;;;;;;;7.45;7.15;;;20.30;57.60;;;;;;5033099;28;20521;-53
2023/03/14 05:44:22;;;;;;;8.70;8.40;;;20.30;57.50;;;;;;5033720;28;20198;-54
2023/03/14 05:46:49;;;;;;;9.80;9.10;;;20.30;57.30;;;;;;5033731;28;20891;-53
2023/03/14 05:49:16;;;;;;;9.30;8.90;;;20.30;57.20;;;;;;5033099;28;20473;-52
2023/03/14 05:51:43;;;;;;;10.63;10.23;;;20.40;57.00;;;;;;5034165;28;20572;-53
2023/03/14 05:54:11;;;;;;;8.60;8.20;;;20.40;56.70;;;;;;5034043;28;20528;-53
2023/03/14 05:56:38;;;;;;;8.90;8.40;;;20.50;56.70;;;;;;5033323;28;20588;-53
2023/03/14 05:59:07;;;;;;;9.67;9.20;;;20.50;56.80;;;;;;5034239;28;20453;-54
2023/03/14 06:01:34;;;;;;;11.57;10.50;;;20.60;57.30;;;;;;5033503;28;20941;-55
2023/03/14 06:04:01;;;;;;;10.20;9.70;;;20.60;57.60;;;;;;5033289;28;20495;-53
2023/03/14 06:06:28;;;;;;;10.80;10.37;;;20.60;58.00;;;;;;5037043;28;20476;-55
2023/03/14 06:08:55;;;;;;;14.33;13.03;;;20.60;59.10;;;;;;5033623;28;20508;-52
2023/03/14 06:11:23;;;;;;;18.03;16.70;;;20.70;66.40;;;;;;5033621;28;20567;-52
2023/03/14 06:13:50;;;;;;;16.60;14.43;;;20.80;65.10;;;;;;5014051;28;20481;-51
2023/03/14 06:16:17;;;;;;;12.82;9.30;;;20.80;65.40;;;;;;5029758;28;20874;-51
2023/03/14 06:18:46;;;;;;;16.87;15.60;;;20.90;67.50;;;;;;5036793;28;20256;-51
2023/03/14 06:21:13;;;;;;;12.75;11.85;;;21.00;68.30;;;;;;5029661;28;20445;-50
2023/03/14 06:23:42;;;;;;;13.00;12.10;;;21.10;67.30;;;;;;5016100;28;20198;-50
2023/03/14 06:26:14;;;;;;;13.93;12.60;;;21.20;67.40;;;;;;5033393;28;20445;-54
2023/03/14 06:28:44;;;;;;;12.17;11.20;;;21.30;65.80;;;;;;5032963;28;20461;-49
2023/03/14 06:31:22;;;;;;;14.80;11.60;;;21.40;64.90;;;;;;5033578;28;20485;-49
2023/03/14 06:33:49;;;;;;;12.20;10.67;;;21.40;65.40;;;;;;5033784;28;20441;-50
2023/03/14 06:36:16;;;;;;;13.47;12.30;;;21.50;65.60;;;;;;5033733;28;20480;-53
2023/03/14 06:38:42;;;;;;;11.97;11.07;;;21.50;65.70;;;;;;5033081;28;20526;-50
2023/03/14 06:41:10;;;;;;;11.63;11.17;;;21.50;64.90;;;;;;5033434;28;20441;-50
2023/03/14 06:43:37;;;;;;;11.37;10.77;;;21.60;64.30;;;;;;5033273;28;20510;-51
2023/03/14 06:46:05;;;;;;;11.83;10.90;;;21.70;63.60;;;;;;5033450;28;20445;-50
2023/03/14 06:48:32;;;;;;;18.30;11.30;;;21.60;63.90;;;;;;5033072;28;20473;-52
2023/03/14 06:50:59;;;;;;;9.80;9.10;;;21.70;64.40;;;;;;5032982;28;20445;-50
2023/03/14 06:53:26;;;;;;;12.20;11.30;;;21.80;64.30;;;;;;5033032;28;20449;-51
2023/03/14 06:55:53;;;;;;;11.60;10.50;;;21.80;65.00;;;;;;5033350;28;20445;-53
2023/03/14 06:58:20;;;;;;;11.23;10.20;;;21.80;64.10;;;;;;5033127;28;20515;-52
2023/03/14 07:00:47;;;;;;;11.33;10.50;;;21.80;64.00;;;;;;5033303;28;20449;-53
2023/03/14 07:03:16;;;;;;;10.97;10.27;;;21.80;64.00;;;;;;5032905;28;20484;-52
2023/03/14 07:05:43;;;;;;;10.13;9.53;;;21.80;64.10;;;;;;5032433;28;20473;-49
2023/03/14 07:08:10;;;;;;;9.43;8.60;;;21.90;64.30;;;;;;5032169;28;20484;-52
2023/03/14 07:10:37;;;;;;;10.80;8.70;;;21.90;62.60;;;;;;5032896;28;20507;-54
2023/03/14 07:13:04;;;;;;;11.13;9.33;;;21.80;62.30;;;;;;5032748;28;20488;-53
2023/03/14 07:15:31;;;;;;;9.73;9.07;;;21.70;62.90;;;;;;5013704;28;20446;-55
2023/03/14 07:17:58;;;;;;;9.30;8.80;;;21.60;63.20;;;;;;5012907;28;20466;-54
2023/03/14 07:20:26;;;;;;;11.80;11.10;;;21.50;63.50;;;;;;5012882;28;20453;-50
